Time;durP1;ratioP1;P1;durP2;ratioP2;P2;SDS_P1;SDS_P2;PMS_P1;PMS_P2;Temp;Humidity;BMP_temperature;BMP_pressure;BME280_temperature;BME280_humidity;BME280_pressure;Samples;Min_cycle;Max_cycle;Signal;HPM_P1;HPM_P2
2023/05/13 00:01:55;;;;;;;5.90;5.50;;;;;;;;;;5099822;28;20436;-83
2023/05/13 00:04:21;;;;;;;5.82;5.43;;;;;;;;;;5099145;28;20388;-83
2023/05/13 00:06:47;;;;;;;6.10;5.60;;;;;;;;;;5102370;28;20386;-82
2023/05/13 00:09:13;;;;;;;6.23;5.83;;;;;;;;;;5104527;28;20456;-83
2023/05/13 00:11:40;;;;;;;5.97;5.55;;;;;;;;;;5091973;28;20447;-82
2023/05/13 00:14:08;;;;;;;5.82;5.43;;;;;;;;;;5091936;28;20420;-82
2023/05/13 00:16:34;;;;;;;6.00;5.60;;;;;;;;;;5091968;28;20374;-82
2023/05/13 00:19:00;;;;;;;5.90;5.50;;;;;;;;;;5092203;28;20377;-82
2023/05/13 00:21:26;;;;;;;5.78;5.40;;;;;;;;;;5090950;28;20381;-83
2023/05/13 00:23:52;;;;;;;5.95;5.55;;;;;;;;;;5109302;28;20747;-82
2023/05/13 00:26:18;;;;;;;5.93;5.53;;;;;;;;;;5104529;28;20502;-82
2023/05/13 00:28:44;;;;;;;6.00;5.60;;;;;;;;;;5102544;28;20993;-82
2023/05/13 00:31:10;;;;;;;6.00;5.60;;;;;;;;;;5096628;28;20467;-82
2023/05/13 00:33:36;;;;;;;5.93;5.53;;;;;;;;;;5091738;28;20381;-82
2023/05/13 00:36:02;;;;;;;6.47;5.97;;;;;;;;;;5091816;28;20381;-82
2023/05/13 00:38:28;;;;;;;5.68;5.28;;;;;;;;;;5095580;28;20985;-83
2023/05/13 00:40:54;;;;;;;6.13;5.73;;;;;;;;;;5093175;28;20460;-82
2023/05/13 00:43:20;;;;;;;5.65;5.32;;;;;;;;;;5096125;27;20496;-82
2023/05/13 00:45:47;;;;;;;6.45;6.05;;;;;;;;;;5126075;27;20526;-81
2023/05/13 00:48:13;;;;;;;5.65;5.30;;;;;;;;;;5100815;28;20435;-83
2023/05/13 00:50:41;;;;;;;6.03;5.57;;;;;;;;;;5095242;28;20802;-83
2023/05/13 00:53:07;;;;;;;6.75;6.28;;;;;;;;;;5095315;28;20443;-83
2023/05/13 00:55:33;;;;;;;6.63;6.15;;;;;;;;;;5096400;28;20381;-83
2023/05/13 00:57:59;;;;;;;6.30;5.90;;;;;;;;;;5108607;28;20385;-83
2023/05/13 01:00:25;;;;;;;6.72;6.22;;;;;;;;;;5095277;28;20423;-83
2023/05/13 01:02:51;;;;;;;6.25;5.85;;;;;;;;;;5095185;28;20759;-83
2023/05/13 01:05:17;;;;;;;6.57;6.17;;;;;;;;;;5095276;28;20375;-83
2023/05/13 01:07:53;;;;;;;6.10;5.70;;;;;;;;;;5095040;28;20913;-83
2023/05/13 01:10:24;;;;;;;5.90;5.50;;;;;;;;;;5095048;28;20378;-83
2023/05/13 01:12:54;;;;;;;6.85;6.32;;;;;;;;;;5095020;28;20374;-83
2023/05/13 01:15:24;;;;;;;5.72;5.32;;;;;;;;;;5095151;28;20374;-83
2023/05/13 01:18:10;;;;;;;6.25;5.70;;;;;;;;;;5094792;28;20431;-83
2023/05/13 01:20:37;;;;;;;6.35;5.95;;;;;;;;;;5094887;28;20872;-83
2023/05/13 01:23:05;;;;;;;5.72;5.43;;;;;;;;;;5093415;28;20809;-84
2023/05/13 01:25:31;;;;;;;6.63;6.22;;;;;;;;;;5103983;28;20429;-83
2023/05/13 01:27:57;;;;;;;6.60;6.15;;;;;;;;;;5106762;28;20364;-83
2023/05/13 01:30:23;;;;;;;6.70;6.20;;;;;;;;;;5107269;28;20918;-83
2023/05/13 01:32:49;;;;;;;5.97;5.47;;;;;;;;;;5107822;28;20376;-81
2023/05/13 01:35:16;;;;;;;6.25;5.85;;;;;;;;;;5107356;28;20510;-83
2023/05/13 01:37:42;;;;;;;6.07;5.68;;;;;;;;;;5116994;27;20384;-83
2023/05/13 01:40:08;;;;;;;6.10;5.70;;;;;;;;;;5113435;28;20376;-83
2023/05/13 01:42:34;;;;;;;6.20;5.80;;;;;;;;;;5114579;28;20762;-83
2023/05/13 01:45:00;;;;;;;6.13;5.63;;;;;;;;;;5114293;28;20377;-83
2023/05/13 01:47:27;;;;;;;6.32;5.93;;;;;;;;;;5108910;28;20441;-83
2023/05/13 01:49:53;;;;;;;6.65;6.15;;;;;;;;;;5112300;28;20380;-83
2023/05/13 01:52:19;;;;;;;6.70;6.20;;;;;;;;;;5107813;28;20389;-83
2023/05/13 01:54:44;;;;;;;6.07;5.68;;;;;;;;;;5112748;28;20743;-81
2023/05/13 01:57:10;;;;;;;6.20;5.80;;;;;;;;;;5112941;27;20441;-83
2023/05/13 01:59:36;;;;;;;6.80;6.30;;;;;;;;;;5105318;28;20390;-83
2023/05/13 02:02:03;;;;;;;7.13;6.53;;;;;;;;;;5114407;27;20404;-83
2023/05/13 02:04:29;;;;;;;6.72;6.32;;;;;;;;;;5114181;28;20459;-83
2023/05/13 02:06:55;;;;;;;6.95;6.53;;;;;;;;;;5108959;28;20380;-82
2023/05/13 02:09:21;;;;;;;6.57;6.15;;;;;;;;;;5110292;28;20381;-82
2023/05/13 02:11:47;;;;;;;6.60;6.20;;;;;;;;;;5119552;27;20397;-83
2023/05/13 02:14:15;;;;;;;6.30;5.90;;;;;;;;;;5109147;27;20368;-83
2023/05/13 02:16:42;;;;;;;6.63;6.22;;;;;;;;;;5104735;28;20386;-81
2023/05/13 02:19:08;;;;;;;6.68;6.28;;;;;;;;;;5106342;28;20859;-82
2023/05/13 02:21:34;;;;;;;7.25;6.75;;;;;;;;;;5113809;28;20384;-82
2023/05/13 02:24:00;;;;;;;7.33;6.80;;;;;;;;;;5093655;28;20384;-82
2023/05/13 02:26:26;;;;;;;6.90;6.38;;;;;;;;;;5113526;28;20386;-82
2023/05/13 02:28:52;;;;;;;6.72;6.32;;;;;;;;;;5112314;28;20391;-82
2023/05/13 02:31:18;;;;;;;6.68;6.18;;;;;;;;;;5112857;28;20380;-82
2023/05/13 02:33:44;;;;;;;6.45;6.05;;;;;;;;;;5111275;28;20376;-82
2023/05/13 02:36:10;;;;;;;6.90;6.50;;;;;;;;;;5113652;28;20384;-81
2023/05/13 02:38:36;;;;;;;6.97;6.50;;;;;;;;;;5113624;28;20734;-81
2023/05/13 02:41:02;;;;;;;6.85;6.45;;;;;;;;;;5113598;28;20736;-82
2023/05/13 02:43:28;;;;;;;6.43;6.03;;;;;;;;;;5113358;28;20408;-81
2023/05/13 02:45:54;;;;;;;6.50;6.10;;;;;;;;;;5112914;28;20373;-81
2023/05/13 02:48:20;;;;;;;6.97;6.53;;;;;;;;;;5112531;28;20755;-82
2023/05/13 02:50:46;;;;;;;6.90;6.40;;;;;;;;;;5113261;28;20400;-83
2023/05/13 02:53:12;;;;;;;7.40;6.90;;;;;;;;;;5102514;27;20382;-81
2023/05/13 02:55:38;;;;;;;6.63;6.22;;;;;;;;;;5092819;28;20389;-81
2023/05/13 02:58:05;;;;;;;7.13;6.63;;;;;;;;;;5101209;28;20785;-81
2023/05/13 03:00:31;;;;;;;7.50;7.00;;;;;;;;;;5098721;28;20377;-81
2023/05/13 03:02:57;;;;;;;7.80;7.30;;;;;;;;;;5092171;28;20411;-81
2023/05/13 03:05:23;;;;;;;7.53;7.03;;;;;;;;;;5092743;28;20445;-82
2023/05/13 03:07:49;;;;;;;7.30;6.80;;;;;;;;;;5092630;28;20458;-81
2023/05/13 03:10:15;;;;;;;7.65;7.15;;;;;;;;;;5092735;28;20759;-81
2023/05/13 03:12:42;;;;;;;7.57;6.97;;;;;;;;;;5103511;27;20386;-83
2023/05/13 03:15:08;;;;;;;7.53;7.03;;;;;;;;;;5107143;28;20919;-81
2023/05/13 03:17:34;;;;;;;7.63;7.13;;;;;;;;;;5111674;28;20477;-82
2023/05/13 03:20:00;;;;;;;7.70;7.10;;;;;;;;;;5112810;28;20459;-81
2023/05/13 03:22:26;;;;;;;7.53;7.05;;;;;;;;;;5112493;28;20431;-83
2023/05/13 03:24:52;;;;;;;7.13;6.63;;;;;;;;;;5106652;28;20380;-81
2023/05/13 03:27:18;;;;;;;8.30;7.70;;;;;;;;;;5111779;27;20430;-83
2023/05/13 03:29:44;;;;;;;7.88;7.32;;;;;;;;;;5097696;28;20376;-83
2023/05/13 03:32:10;;;;;;;7.47;6.90;;;;;;;;;;5094208;28;20374;-82
2023/05/13 03:34:36;;;;;;;7.90;7.40;;;;;;;;;;5107772;28;20372;-81
2023/05/13 03:37:02;;;;;;;8.40;7.80;;;;;;;;;;5101324;28;20818;-82
2023/05/13 03:39:29;;;;;;;8.00;7.47;;;;;;;;;;5111274;28;20418;-81
2023/05/13 03:41:55;;;;;;;8.27;7.78;;;;;;;;;;5110998;28;20387;-81
2023/05/13 03:44:21;;;;;;;7.95;7.43;;;;;;;;;;5104541;28;20378;-82
2023/05/13 03:46:47;;;;;;;8.07;7.53;;;;;;;;;;5109145;28;20368;-82
2023/05/13 03:49:13;;;;;;;7.63;7.03;;;;;;;;;;5094073;28;20866;-82
2023/05/13 03:51:38;;;;;;;7.85;7.32;;;;;;;;;;5096463;28;20394;-82
2023/05/13 03:54:05;;;;;;;7.43;6.97;;;;;;;;;;5095884;28;20390;-82
2023/05/13 03:56:30;;;;;;;7.90;7.40;;;;;;;;;;5104304;28;20383;-82
2023/05/13 03:58:56;;;;;;;7.53;6.93;;;;;;;;;;5112392;28;20380;-82
2023/05/13 04:01:22;;;;;;;7.85;7.28;;;;;;;;;;5112640;28;20504;-82
2023/05/13 04:03:49;;;;;;;7.90;7.40;;;;;;;;;;5107801;28;20390;-81
2023/05/13 04:06:15;;;;;;;8.15;7.45;;;;;;;;;;5092491;28;20401;-82
2023/05/13 04:08:41;;;;;;;7.53;7.03;;;;;;;;;;5092008;28;20421;-82
2023/05/13 04:11:07;;;;;;;7.93;7.32;;;;;;;;;;5095305;28;20370;-82
2023/05/13 04:13:36;;;;;;;8.13;7.63;;;;;;;;;;5122898;28;20425;-81
2023/05/13 04:16:03;;;;;;;7.82;7.32;;;;;;;;;;5099306;28;20378;-81
2023/05/13 04:18:29;;;;;;;7.87;7.37;;;;;;;;;;5096085;28;20443;-84
2023/05/13 04:20:56;;;;;;;7.82;7.32;;;;;;;;;;5095814;28;20381;-81
2023/05/13 04:23:22;;;;;;;8.07;7.53;;;;;;;;;;5102482;28;20453;-81
2023/05/13 04:25:51;;;;;;;8.05;7.55;;;;;;;;;;5095966;28;20390;-82
2023/05/13 04:28:18;;;;;;;8.43;7.90;;;;;;;;;;5114573;28;20506;-81
2023/05/13 04:30:44;;;;;;;8.20;7.70;;;;;;;;;;5108764;28;20376;-82
2023/05/13 04:33:10;;;;;;;8.60;8.00;;;;;;;;;;5115187;28;20384;-81
2023/05/13 04:35:36;;;;;;;8.07;7.57;;;;;;;;;;5115459;28;20881;-81
2023/05/13 04:38:02;;;;;;;8.00;7.47;;;;;;;;;;5104794;28;20830;-81
2023/05/13 04:40:28;;;;;;;9.15;8.55;;;;;;;;;;5115691;28;20923;-83
2023/05/13 04:42:54;;;;;;;8.63;8.02;;;;;;;;;;5112227;28;20395;-83
2023/05/13 04:45:20;;;;;;;9.50;8.87;;;;;;;;;;5099627;28;20458;-81
2023/05/13 04:47:47;;;;;;;10.07;9.43;;;;;;;;;;5115982;28;20379;-81
2023/05/13 04:50:12;;;;;;;9.77;9.10;;;;;;;;;;5116713;27;20376;-82
2023/05/13 04:52:41;;;;;;;10.25;9.63;;;;;;;;;;5115642;28;20751;-81
2023/05/13 04:55:07;;;;;;;10.48;9.77;;;;;;;;;;5115619;28;20372;-81
2023/05/13 04:57:33;;;;;;;9.85;9.15;;;;;;;;;;5111385;28;20386;-81
2023/05/13 04:59:59;;;;;;;9.95;9.25;;;;;;;;;;5104270;28;20429;-82
2023/05/13 05:02:28;;;;;;;9.25;8.55;;;;;;;;;;5114151;28;20912;-83
2023/05/13 05:04:54;;;;;;;10.20;9.50;;;;;;;;;;5113652;28;20390;-82
2023/05/13 05:07:20;;;;;;;9.52;8.88;;;;;;;;;;5113689;28;20388;-82
2023/05/13 05:09:46;;;;;;;10.17;9.37;;;;;;;;;;5114282;28;20833;-82
2023/05/13 05:12:12;;;;;;;10.55;9.75;;;;;;;;;;5114130;28;20773;-83
2023/05/13 05:14:38;;;;;;;10.10;9.38;;;;;;;;;;5114089;28;20388;-82
2023/05/13 05:17:04;;;;;;;9.65;9.05;;;;;;;;;;5114363;28;20404;-82
2023/05/13 05:19:30;;;;;;;9.07;8.48;;;;;;;;;;5108893;28;20378;-82
2023/05/13 05:21:57;;;;;;;9.20;8.50;;;;;;;;;;5114158;28;20814;-83
2023/05/13 05:24:23;;;;;;;8.07;7.55;;;;;;;;;;5112908;27;20848;-83
2023/05/13 05:26:49;;;;;;;8.48;7.93;;;;;;;;;;5106285;28;20383;-81
2023/05/13 05:29:15;;;;;;;8.75;8.20;;;;;;;;;;5103329;28;20376;-82
2023/05/13 05:31:41;;;;;;;8.68;8.07;;;;;;;;;;5103385;28;20843;-82
2023/05/13 05:34:07;;;;;;;8.73;8.23;;;;;;;;;;5113233;28;20429;-81
2023/05/13 05:36:33;;;;;;;8.63;8.10;;;;;;;;;;5094738;28;20966;-81
2023/05/13 05:38:59;;;;;;;9.07;8.43;;;;;;;;;;5113628;28;20391;-81
2023/05/13 05:41:25;;;;;;;8.57;8.05;;;;;;;;;;5113171;28;20412;-82
2023/05/13 05:43:51;;;;;;;8.57;7.97;;;;;;;;;;5113565;28;20451;-81
2023/05/13 05:46:17;;;;;;;8.13;7.63;;;;;;;;;;5113537;28;20930;-84
2023/05/13 05:48:43;;;;;;;8.73;8.13;;;;;;;;;;5100914;28;20370;-83
2023/05/13 05:51:09;;;;;;;8.45;7.85;;;;;;;;;;5104510;28;20399;-84
2023/05/13 05:53:36;;;;;;;8.60;7.90;;;;;;;;;;5102358;28;20885;-83
2023/05/13 05:56:03;;;;;;;7.75;7.22;;;;;;;;;;5109662;27;20372;-84
2023/05/13 05:58:29;;;;;;;7.40;6.90;;;;;;;;;;5108144;28;20385;-84
2023/05/13 06:00:55;;;;;;;8.18;7.63;;;;;;;;;;5113479;28;20372;-83
2023/05/13 06:03:21;;;;;;;7.40;6.90;;;;;;;;;;5113357;28;20407;-82
2023/05/13 06:05:47;;;;;;;8.13;7.60;;;;;;;;;;5113250;28;20372;-83
2023/05/13 06:08:13;;;;;;;8.10;7.55;;;;;;;;;;5116278;27;20368;-83
2023/05/13 06:10:39;;;;;;;7.22;6.78;;;;;;;;;;5114235;27;20877;-82
2023/05/13 06:13:05;;;;;;;7.40;6.80;;;;;;;;;;5092802;28;20390;-83
2023/05/13 06:15:32;;;;;;;6.90;6.40;;;;;;;;;;5086363;28;20388;-83
2023/05/13 06:17:58;;;;;;;6.88;6.38;;;;;;;;;;5102045;28;20443;-81
2023/05/13 06:20:24;;;;;;;7.35;6.78;;;;;;;;;;5103394;28;20380;-81
2023/05/13 06:22:50;;;;;;;6.90;6.50;;;;;;;;;;5113048;28;20403;-83
2023/05/13 06:25:16;;;;;;;6.70;6.20;;;;;;;;;;5101726;28;20897;-81
2023/05/13 06:27:42;;;;;;;6.60;6.10;;;;;;;;;;5105285;28;20374;-81
2023/05/13 06:30:09;;;;;;;6.53;6.05;;;;;;;;;;5111942;28;20396;-81
2023/05/13 06:32:35;;;;;;;6.10;5.70;;;;;;;;;;5113841;28;20383;-80
2023/05/13 06:35:01;;;;;;;5.32;5.03;;;;;;;;;;5113541;28;20387;-81
2023/05/13 06:37:27;;;;;;;5.38;5.07;;;;;;;;;;5113622;28;20381;-79
2023/05/13 06:39:53;;;;;;;5.10;4.80;;;;;;;;;;5112550;28;20420;-80
2023/05/13 06:42:19;;;;;;;5.05;4.60;;;;;;;;;;5112948;28;20790;-80
2023/05/13 06:44:45;;;;;;;4.60;4.30;;;;;;;;;;5109408;28;20397;-80
2023/05/13 06:47:14;;;;;;;5.03;4.70;;;;;;;;;;5113466;28;20839;-80
2023/05/13 06:49:41;;;;;;;4.25;4.05;;;;;;;;;;5113495;28;20364;-81
2023/05/13 06:52:07;;;;;;;4.10;3.80;;;;;;;;;;5113164;28;20391;-80
2023/05/13 06:54:33;;;;;;;4.30;4.00;;;;;;;;;;5113328;28;20383;-80
2023/05/13 06:56:59;;;;;;;4.30;4.10;;;;;;;;;;5115363;27;20383;-81
2023/05/13 06:59:25;;;;;;;4.45;4.10;;;;;;;;;;5094499;27;20378;-82
2023/05/13 07:01:51;;;;;;;3.70;3.50;;;;;;;;;;5086001;28;20739;-82
2023/05/13 07:04:17;;;;;;;4.10;3.80;;;;;;;;;;5095442;28;20374;-82
2023/05/13 07:06:43;;;;;;;4.00;3.80;;;;;;;;;;5102316;28;20376;-82
2023/05/13 07:09:09;;;;;;;3.85;3.58;;;;;;;;;;5097448;28;20376;-80
2023/05/13 07:11:35;;;;;;;3.92;3.72;;;;;;;;;;5099971;28;20422;-82
2023/05/13 07:14:01;;;;;;;3.75;3.55;;;;;;;;;;5112852;28;20392;-80
2023/05/13 07:16:27;;;;;;;3.72;3.45;;;;;;;;;;5112963;28;20886;-80
2023/05/13 07:18:53;;;;;;;3.95;3.65;;;;;;;;;;5113186;28;20388;-81
2023/05/13 07:21:20;;;;;;;3.70;3.50;;;;;;;;;;5112768;28;20742;-82
2023/05/13 07:23:49;;;;;;;3.65;3.45;;;;;;;;;;5112690;28;20771;-80
2023/05/13 07:26:15;;;;;;;3.70;3.50;;;;;;;;;;5112521;28;20421;-81
2023/05/13 07:28:42;;;;;;;4.57;4.20;;;;;;;;;;5112550;27;20376;-81
2023/05/13 07:31:08;;;;;;;5.30;4.90;;;;;;;;;;5110262;28;20387;-81
2023/05/13 07:33:35;;;;;;;6.38;5.78;;;;;;;;;;5111682;28;20379;-82
2023/05/13 07:36:01;;;;;;;4.80;4.50;;;;;;;;;;5100079;28;20524;-79
2023/05/13 07:38:27;;;;;;;5.13;4.82;;;;;;;;;;5111052;28;20845;-80
2023/05/13 07:40:53;;;;;;;4.80;4.50;;;;;;;;;;5112556;28;20373;-82
2023/05/13 07:43:22;;;;;;;5.07;4.68;;;;;;;;;;5112231;28;20481;-80
2023/05/13 07:45:49;;;;;;;5.73;5.33;;;;;;;;;;5112588;28;20365;-80
2023/05/13 07:48:16;;;;;;;5.03;4.70;;;;;;;;;;5112698;28;20379;-79
2023/05/13 07:50:43;;;;;;;4.55;4.15;;;;;;;;;;5112121;28;20869;-80
2023/05/13 07:53:09;;;;;;;3.78;3.58;;;;;;;;;;5112476;28;20376;-80
2023/05/13 07:55:35;;;;;;;5.57;3.65;;;;;;;;;;5112380;28;20406;-80
2023/05/13 07:58:01;;;;;;;3.90;3.10;;;;;;;;;;5112873;28;20384;-79
2023/05/13 08:00:27;;;;;;;4.13;3.93;;;;;;;;;;5112440;28;20429;-81
2023/05/13 08:02:53;;;;;;;3.95;3.60;;;;;;;;;;5092097;28;20413;-82
2023/05/13 08:05:19;;;;;;;3.60;3.30;;;;;;;;;;5109024;28;20371;-83
2023/05/13 08:07:45;;;;;;;3.90;3.70;;;;;;;;;;5110574;28;20366;-79
2023/05/13 08:10:11;;;;;;;3.58;3.38;;;;;;;;;;5100775;28;20397;-80
2023/05/13 08:12:39;;;;;;;3.20;3.00;;;;;;;;;;5091870;28;20465;-80
2023/05/13 08:15:06;;;;;;;3.42;3.13;;;;;;;;;;5082178;28;21004;-84
2023/05/13 08:17:32;;;;;;;3.15;2.95;;;;;;;;;;5098285;28;20438;-86
2023/05/13 08:19:58;;;;;;;3.30;2.90;;;;;;;;;;5094811;28;20470;-84
2023/05/13 08:22:24;;;;;;;3.00;2.80;;;;;;;;;;5091927;28;20451;-85
2023/05/13 08:24:50;;;;;;;3.08;2.88;;;;;;;;;;5091854;28;20748;-81
2023/05/13 08:27:16;;;;;;;3.35;3.15;;;;;;;;;;5091978;28;20374;-85
2023/05/13 08:29:42;;;;;;;3.45;3.25;;;;;;;;;;5091754;28;20809;-86
2023/05/13 08:32:09;;;;;;;3.38;3.17;;;;;;;;;;5095585;28;20515;-85
2023/05/13 08:34:35;;;;;;;3.40;3.20;;;;;;;;;;5091810;28;20406;-84
2023/05/13 08:37:01;;;;;;;3.53;3.33;;;;;;;;;;5091833;28;20886;-89
2023/05/13 08:39:28;;;;;;;3.40;3.10;;;;;;;;;;5087206;28;20380;-86
2023/05/13 08:41:56;;;;;;;3.22;3.03;;;;;;;;;;5090315;28;20882;-85
2023/05/13 08:44:27;;;;;;;3.00;2.80;;;;;;;;;;5112031;28;20384;-84
2023/05/13 08:46:58;;;;;;;3.70;3.40;;;;;;;;;;5108205;28;20370;-85
2023/05/13 08:49:24;;;;;;;3.60;3.40;;;;;;;;;;5090132;28;20388;-86
2023/05/13 08:51:50;;;;;;;3.80;3.60;;;;;;;;;;5104302;28;20406;-85
2023/05/13 08:54:17;;;;;;;4.22;3.92;;;;;;;;;;5111751;28;20455;-86
2023/05/13 08:56:43;;;;;;;4.38;4.07;;;;;;;;;;5111869;28;20739;-86
2023/05/13 08:59:09;;;;;;;3.60;3.40;;;;;;;;;;5111816;28;20385;-85
2023/05/13 09:01:35;;;;;;;3.25;3.05;;;;;;;;;;5103952;28;20410;-88
2023/05/13 09:04:03;;;;;;;3.30;3.10;;;;;;;;;;5091019;28;20997;-86
2023/05/13 09:06:29;;;;;;;4.17;3.00;;;;;;;;;;5095386;28;20416;-86
2023/05/13 09:08:56;;;;;;;3.78;3.47;;;;;;;;;;5095186;28;20374;-84
2023/05/13 09:11:22;;;;;;;3.45;3.25;;;;;;;;;;5094930;28;20732;-85
2023/05/13 09:13:57;;;;;;;3.83;3.50;;;;;;;;;;5095361;28;20386;-84
2023/05/13 09:16:24;;;;;;;3.78;3.58;;;;;;;;;;5102176;28;20403;-83
2023/05/13 09:18:55;;;;;;;4.38;3.97;;;;;;;;;;5115279;28;20376;-84
2023/05/13 09:21:22;;;;;;;4.13;3.83;;;;;;;;;;5106052;28;20448;-84
2023/05/13 09:23:48;;;;;;;4.60;4.20;;;;;;;;;;5104746;28;20485;-85
2023/05/13 09:26:27;;;;;;;4.50;4.10;;;;;;;;;;5101268;28;20428;-85
2023/05/13 09:29:12;;;;;;;4.30;4.00;;;;;;;;;;5096965;28;20379;-84
2023/05/13 09:31:38;;;;;;;4.80;4.40;;;;;;;;;;5116006;27;20468;-85
2023/05/13 09:34:04;;;;;;;4.50;4.10;;;;;;;;;;5095467;28;20496;-84
2023/05/13 09:36:31;;;;;;;4.13;3.83;;;;;;;;;;5111184;28;20481;-85
2023/05/13 09:38:57;;;;;;;4.83;4.53;;;;;;;;;;5114952;28;20454;-84
2023/05/13 09:41:24;;;;;;;4.60;4.30;;;;;;;;;;5114851;28;20786;-84
2023/05/13 09:43:50;;;;;;;4.60;4.30;;;;;;;;;;5101189;28;20404;-84
2023/05/13 09:46:16;;;;;;;5.20;4.80;;;;;;;;;;5114703;28;20847;-83
2023/05/13 09:48:43;;;;;;;4.72;4.40;;;;;;;;;;5114614;28;20380;-83
2023/05/13 09:51:09;;;;;;;4.53;4.22;;;;;;;;;;5113375;28;20471;-84
2023/05/13 09:53:35;;;;;;;5.13;4.72;;;;;;;;;;5114336;28;20450;-84
2023/05/13 09:56:01;;;;;;;4.93;4.53;;;;;;;;;;5096327;28;20393;-84
2023/05/13 09:58:29;;;;;;;4.93;4.63;;;;;;;;;;5096616;28;20388;-83
2023/05/13 10:00:55;;;;;;;4.43;4.03;;;;;;;;;;5114211;27;20386;-84
2023/05/13 10:03:21;;;;;;;4.00;3.70;;;;;;;;;;5104513;28;20418;-84
2023/05/13 10:05:48;;;;;;;4.35;3.95;;;;;;;;;;5093841;28;20453;-84
2023/05/13 10:08:15;;;;;;;4.50;4.18;;;;;;;;;;5093969;28;20378;-84
2023/05/13 10:10:44;;;;;;;4.10;3.80;;;;;;;;;;5109523;27;20399;-84
2023/05/13 10:13:12;;;;;;;4.47;4.13;;;;;;;;;;5093336;28;20863;-84
2023/05/13 10:15:58;;;;;;;5.57;5.18;;;;;;;;;;5093978;28;20374;-84
2023/05/13 10:18:24;;;;;;;5.27;4.87;;;;;;;;;;5083442;28;20377;-84
2023/05/13 10:20:53;;;;;;;5.45;5.05;;;;;;;;;;5100421;28;20374;-84
2023/05/13 10:23:19;;;;;;;4.90;4.50;;;;;;;;;;5093603;28;20433;-84
2023/05/13 10:25:49;;;;;;;4.90;4.50;;;;;;;;;;5093771;28;20385;-84
2023/05/13 10:28:16;;;;;;;4.63;4.32;;;;;;;;;;5093490;28;20453;-84
2023/05/13 10:30:43;;;;;;;4.80;4.50;;;;;;;;;;5093501;28;20374;-84
2023/05/13 10:33:09;;;;;;;4.35;4.05;;;;;;;;;;5089218;28;20763;-84
2023/05/13 10:35:40;;;;;;;5.05;4.70;;;;;;;;;;5093477;28;20398;-84
2023/05/13 10:38:16;;;;;;;5.13;4.72;;;;;;;;;;5087741;28;20376;-85
2023/05/13 10:40:51;;;;;;;4.70;4.40;;;;;;;;;;5093320;28;20388;-84
2023/05/13 10:43:18;;;;;;;4.65;4.35;;;;;;;;;;5095393;28;20394;-84
2023/05/13 10:45:48;;;;;;;4.70;4.40;;;;;;;;;;5104348;28;20458;-85
2023/05/13 10:48:15;;;;;;;4.53;4.22;;;;;;;;;;5093826;28;20381;-84
2023/05/13 10:50:51;;;;;;;5.38;4.97;;;;;;;;;;5098283;27;20379;-84
2023/05/13 10:53:19;;;;;;;4.35;4.10;;;;;;;;;;5107198;28;20400;-84
2023/05/13 10:55:45;;;;;;;4.88;4.45;;;;;;;;;;5096167;28;20380;-85
2023/05/13 10:58:15;;;;;;;5.00;4.60;;;;;;;;;;5113438;28;20450;-84
2023/05/13 11:00:42;;;;;;;4.87;4.47;;;;;;;;;;5111759;28;20864;-84
2023/05/13 11:03:08;;;;;;;4.75;4.35;;;;;;;;;;5092785;28;20451;-84
2023/05/13 11:05:34;;;;;;;5.07;4.78;;;;;;;;;;5092940;28;20374;-84
2023/05/13 11:08:00;;;;;;;4.93;4.53;;;;;;;;;;5092710;28;20402;-85
2023/05/13 11:10:29;;;;;;;6.72;6.05;;;;;;;;;;5092783;28;20412;-84
2023/05/13 11:13:13;;;;;;;5.72;5.32;;;;;;;;;;5092610;28;20378;-85
2023/05/13 11:15:44;;;;;;;6.13;5.63;;;;;;;;;;5092860;28;20385;-85
2023/05/13 11:18:11;;;;;;;5.10;4.70;;;;;;;;;;5092595;28;20435;-84
2023/05/13 11:20:37;;;;;;;5.15;4.85;;;;;;;;;;5092694;28;20378;-84
2023/05/13 11:23:03;;;;;;;6.13;5.63;;;;;;;;;;5092392;28;20493;-84
2023/05/13 11:25:29;;;;;;;5.67;5.27;;;;;;;;;;5091951;28;20374;-84
2023/05/13 11:27:55;;;;;;;5.97;5.47;;;;;;;;;;5101073;28;20388;-85
2023/05/13 11:30:22;;;;;;;5.70;5.30;;;;;;;;;;5092457;28;20378;-85
2023/05/13 11:32:52;;;;;;;6.53;6.03;;;;;;;;;;5092396;28;20479;-85
2023/05/13 11:35:27;;;;;;;6.10;5.60;;;;;;;;;;5092473;28;20721;-84
2023/05/13 11:37:54;;;;;;;6.67;6.17;;;;;;;;;;5092839;27;20474;-84
2023/05/13 11:40:26;;;;;;;6.63;5.90;;;;;;;;;;5124108;27;20364;-84
2023/05/13 11:42:52;;;;;;;6.15;5.75;;;;;;;;;;5099439;28;20410;-84
2023/05/13 11:45:19;;;;;;;6.53;6.03;;;;;;;;;;5106526;28;20393;-84
2023/05/13 11:47:45;;;;;;;6.07;5.63;;;;;;;;;;5092215;28;20381;-85
2023/05/13 11:50:21;;;;;;;6.88;6.38;;;;;;;;;;5109558;28;20379;-85
2023/05/13 11:52:51;;;;;;;6.57;6.07;;;;;;;;;;5101620;28;20398;-84
2023/05/13 11:55:31;;;;;;;6.78;5.80;;;;;;;;;;5088471;28;20787;-84
2023/05/13 11:58:00;;;;;;;6.30;5.70;;;;;;;;;;5099143;28;20422;-84
2023/05/13 12:00:26;;;;;;;6.72;6.18;;;;;;;;;;5115198;28;20376;-84
2023/05/13 12:02:53;;;;;;;7.38;6.78;;;;;;;;;;5092170;28;20401;-84
2023/05/13 12:05:19;;;;;;;7.00;6.40;;;;;;;;;;5092168;28;20370;-84
2023/05/13 12:07:45;;;;;;;7.32;6.63;;;;;;;;;;5091894;28;20431;-84
2023/05/13 12:10:11;;;;;;;7.25;6.65;;;;;;;;;;5091993;28;20374;-84
2023/05/13 12:12:40;;;;;;;7.30;6.60;;;;;;;;;;5091935;28;20381;-84
2023/05/13 12:15:09;;;;;;;7.10;6.60;;;;;;;;;;5091923;28;20470;-84
2023/05/13 12:17:35;;;;;;;7.28;6.78;;;;;;;;;;5091832;28;20382;-84
2023/05/13 12:20:17;;;;;;;6.80;6.30;;;;;;;;;;5092005;28;20468;-84
2023/05/13 12:22:43;;;;;;;7.47;6.97;;;;;;;;;;5114446;28;20435;-84
2023/05/13 12:25:28;;;;;;;6.70;6.30;;;;;;;;;;5091991;28;20418;-84
2023/05/13 12:27:54;;;;;;;6.63;6.22;;;;;;;;;;5091724;28;20465;-84
2023/05/13 12:30:20;;;;;;;7.82;7.22;;;;;;;;;;5097412;28;20469;-84
2023/05/13 12:32:46;;;;;;;7.38;6.78;;;;;;;;;;5091785;28;20381;-84
2023/05/13 12:35:13;;;;;;;7.28;6.72;;;;;;;;;;5091930;28;20378;-84
2023/05/13 12:37:39;;;;;;;7.30;6.70;;;;;;;;;;5095886;28;20374;-84
2023/05/13 12:40:09;;;;;;;7.87;7.30;;;;;;;;;;5099522;28;20407;-84
2023/05/13 12:42:35;;;;;;;7.43;6.93;;;;;;;;;;5097440;28;20391;-84
2023/05/13 12:45:01;;;;;;;7.07;6.57;;;;;;;;;;5113292;28;20467;-84
2023/05/13 12:47:27;;;;;;;7.43;6.88;;;;;;;;;;5098985;28;20479;-87
2023/05/13 12:49:59;;;;;;;7.15;6.57;;;;;;;;;;5095352;28;20388;-84
2023/05/13 12:52:25;;;;;;;8.63;7.93;;;;;;;;;;5095238;28;20398;-84
2023/05/13 12:54:51;;;;;;;8.13;7.63;;;;;;;;;;5095416;28;20381;-84
2023/05/13 12:57:19;;;;;;;7.90;7.30;;;;;;;;;;5111051;28;20473;-84
2023/05/13 12:59:45;;;;;;;7.82;7.30;;;;;;;;;;5111418;27;20469;-85
2023/05/13 13:02:12;;;;;;;8.10;7.30;;;;;;;;;;5109323;28;20456;-84
2023/05/13 13:04:37;;;;;;;7.57;7.07;;;;;;;;;;5109442;28;20870;-84
2023/05/13 13:07:07;;;;;;;6.95;6.45;;;;;;;;;;5095240;28;20374;-84
2023/05/13 13:09:33;;;;;;;6.97;6.28;;;;;;;;;;5095536;28;20391;-85
2023/05/13 13:11:59;;;;;;;7.85;7.35;;;;;;;;;;5105021;28;20743;-84
2023/05/13 13:14:25;;;;;;;7.57;6.97;;;;;;;;;;5094808;28;20855;-85
2023/05/13 13:16:51;;;;;;;7.35;6.85;;;;;;;;;;5094984;28;20414;-84
2023/05/13 13:19:17;;;;;;;7.00;6.50;;;;;;;;;;5095000;27;20453;-84
2023/05/13 13:21:43;;;;;;;7.38;6.88;;;;;;;;;;5094928;28;20422;-85
2023/05/13 13:24:09;;;;;;;7.00;6.40;;;;;;;;;;5094699;28;20402;-83
2023/05/13 13:26:35;;;;;;;7.00;6.50;;;;;;;;;;5094740;28;20366;-83
2023/05/13 13:29:01;;;;;;;7.20;6.70;;;;;;;;;;5094820;28;20398;-84
2023/05/13 13:31:27;;;;;;;7.18;6.65;;;;;;;;;;5090854;28;20429;-84
2023/05/13 13:33:53;;;;;;;6.80;6.20;;;;;;;;;;5085432;28;20779;-84
2023/05/13 13:36:19;;;;;;;9.10;8.40;;;;;;;;;;5099585;28;20389;-84
2023/05/13 13:38:45;;;;;;;9.48;8.70;;;;;;;;;;5094560;28;20378;-83
2023/05/13 13:41:11;;;;;;;7.90;7.30;;;;;;;;;;5094457;28;20883;-83
2023/05/13 13:43:37;;;;;;;7.23;6.73;;;;;;;;;;5108840;27;20444;-84
2023/05/13 13:46:03;;;;;;;8.05;7.45;;;;;;;;;;5096764;28;20390;-83
2023/05/13 13:48:29;;;;;;;8.65;8.05;;;;;;;;;;5096381;28;20370;-84
2023/05/13 13:50:57;;;;;;;7.70;7.20;;;;;;;;;;5094172;28;20848;-83
2023/05/13 13:53:23;;;;;;;7.80;7.20;;;;;;;;;;5094105;28;20382;-84
2023/05/13 13:55:49;;;;;;;7.30;6.80;;;;;;;;;;5101737;28;20464;-84
2023/05/13 13:58:15;;;;;;;7.18;6.68;;;;;;;;;;5114910;28;20866;-83
2023/05/13 14:00:41;;;;;;;7.80;7.30;;;;;;;;;;5098475;28;20385;-84
2023/05/13 14:03:07;;;;;;;7.60;7.10;;;;;;;;;;5102851;27;20416;-84
2023/05/13 14:05:33;;;;;;;8.23;7.63;;;;;;;;;;5094335;28;20374;-84
2023/05/13 14:07:59;;;;;;;7.82;7.30;;;;;;;;;;5093836;28;20930;-83
2023/05/13 14:10:25;;;;;;;8.02;7.53;;;;;;;;;;5093961;28;20378;-84
2023/05/13 14:12:52;;;;;;;8.48;7.88;;;;;;;;;;5093665;28;20882;-84
2023/05/13 14:15:18;;;;;;;7.68;7.18;;;;;;;;;;5085722;28;20951;-84
2023/05/13 14:17:44;;;;;;;7.60;7.00;;;;;;;;;;5101414;27;20394;-84
2023/05/13 14:20:10;;;;;;;7.82;7.25;;;;;;;;;;5106081;28;20377;-84
2023/05/13 14:22:36;;;;;;;7.82;7.32;;;;;;;;;;5093550;28;20405;-83
2023/05/13 14:25:03;;;;;;;7.43;6.93;;;;;;;;;;5093732;28;20368;-85
2023/05/13 14:27:29;;;;;;;8.27;7.70;;;;;;;;;;5093649;28;20373;-83
2023/05/13 14:29:54;;;;;;;7.72;7.22;;;;;;;;;;5094737;28;20370;-84
2023/05/13 14:32:20;;;;;;;7.22;6.70;;;;;;;;;;5093425;28;20779;-84
2023/05/13 14:34:46;;;;;;;8.88;8.30;;;;;;;;;;5093361;28;20371;-84
2023/05/13 14:37:12;;;;;;;8.57;8.05;;;;;;;;;;5093584;28;20382;-85
2023/05/13 14:39:38;;;;;;;8.13;7.53;;;;;;;;;;5094280;28;20447;-84
2023/05/13 14:42:05;;;;;;;7.90;7.30;;;;;;;;;;5093216;28;20366;-84